sensor_id;sensor_type;location;lat;lon;timestamp;P1;durP1;ratioP1;P2;durP2;ratioP2
71869;SDS011;59739;47.696;11.746;2022-10-16T00:02:07;2.70;;;1.30;;
71869;SDS011;59739;47.696;11.746;2022-10-16T00:04:33;2.30;;;1.25;;
71869;SDS011;59739;47.696;11.746;2022-10-16T00:06:59;2.35;;;1.00;;
71869;SDS011;59739;47.696;11.746;2022-10-16T00:09:25;2.08;;;1.33;;
71869;SDS011;59739;47.696;11.746;2022-10-16T00:11:51;3.08;;;1.23;;
71869;SDS011;59739;47.696;11.746;2022-10-16T00:14:17;1.88;;;1.33;;
71869;SDS011;59739;47.696;11.746;2022-10-16T00:16:43;2.45;;;1.40;;
71869;SDS011;59739;47.696;11.746;2022-10-16T00:19:09;1.73;;;1.30;;
71869;SDS011;59739;47.696;11.746;2022-10-16T00:21:37;1.40;;;1.17;;
71869;SDS011;59739;47.696;11.746;2022-10-16T00:24:05;1.13;;;1.00;;
71869;SDS011;59739;47.696;11.746;2022-10-16T00:26:34;1.20;;;0.90;;
71869;SDS011;59739;47.696;11.746;2022-10-16T00:29:01;1.85;;;1.10;;
71869;SDS011;59739;47.696;11.746;2022-10-16T00:31:28;3.97;;;1.00;;
71869;SDS011;59739;47.696;11.746;2022-10-16T00:33:54;3.05;;;0.85;;
71869;SDS011;59739;47.696;11.746;2022-10-16T00:36:21;4.93;;;1.27;;
71869;SDS011;59739;47.696;11.746;2022-10-16T00:38:54;2.83;;;1.10;;
71869;SDS011;59739;47.696;11.746;2022-10-16T00:41:23;1.65;;;1.10;;
71869;SDS011;59739;47.696;11.746;2022-10-16T00:43:53;2.00;;;1.15;;
71869;SDS011;59739;47.696;11.746;2022-10-16T00:51:42;4.03;;;1.55;;
71869;SDS011;59739;47.696;11.746;2022-10-16T00:54:17;2.65;;;1.52;;
71869;SDS011;59739;47.696;11.746;2022-10-16T00:56:48;1.95;;;1.58;;
71869;SDS011;59739;47.696;11.746;2022-10-16T00:59:20;2.42;;;1.30;;
71869;SDS011;59739;47.696;11.746;2022-10-16T01:01:53;3.78;;;1.10;;
71869;SDS011;59739;47.696;11.746;2022-10-16T01:04:21;2.05;;;0.70;;
71869;SDS011;59739;47.696;11.746;2022-10-16T01:09:29;2.25;;;1.00;;
71869;SDS011;59739;47.696;11.746;2022-10-16T01:12:14;1.85;;;0.90;;
71869;SDS011;59739;47.696;11.746;2022-10-16T01:14:59;2.13;;;1.00;;
71869;SDS011;59739;47.696;11.746;2022-10-16T01:20:08;3.42;;;1.95;;
71869;SDS011;59739;47.696;11.746;2022-10-16T01:28:54;1.77;;;1.20;;
71869;SDS011;59739;47.696;11.746;2022-10-16T01:34:05;1.70;;;1.10;;
71869;SDS011;59739;47.696;11.746;2022-10-16T01:36:42;3.28;;;1.55;;
71869;SDS011;59739;47.696;11.746;2022-10-16T01:39:18;1.85;;;1.42;;
71869;SDS011;59739;47.696;11.746;2022-10-16T01:41:51;3.42;;;1.30;;
71869;SDS011;59739;47.696;11.746;2022-10-16T01:44:29;2.38;;;1.42;;
71869;SDS011;59739;47.696;11.746;2022-10-16T01:46:58;1.52;;;1.40;;
71869;SDS011;59739;47.696;11.746;2022-10-16T01:49:26;3.40;;;1.50;;
71869;SDS011;59739;47.696;11.746;2022-10-16T01:51:59;1.88;;;1.50;;
71869;SDS011;59739;47.696;11.746;2022-10-16T01:54:33;3.10;;;1.40;;
71869;SDS011;59739;47.696;11.746;2022-10-16T01:57:01;3.03;;;1.73;;
71869;SDS011;59739;47.696;11.746;2022-10-16T01:59:31;2.35;;;1.20;;
71869;SDS011;59739;47.696;11.746;2022-10-16T02:02:04;1.92;;;1.50;;
71869;SDS011;59739;47.696;11.746;2022-10-16T02:04:34;2.13;;;1.55;;
71869;SDS011;59739;47.696;11.746;2022-10-16T02:07:04;6.00;;;1.42;;
71869;SDS011;59739;47.696;11.746;2022-10-16T02:09:34;2.35;;;1.50;;
71869;SDS011;59739;47.696;11.746;2022-10-16T02:12:03;2.20;;;1.40;;
71869;SDS011;59739;47.696;11.746;2022-10-16T02:14:51;1.88;;;1.33;;
71869;SDS011;59739;47.696;11.746;2022-10-16T02:17:18;1.40;;;1.23;;
71869;SDS011;59739;47.696;11.746;2022-10-16T02:19:45;2.50;;;1.40;;
71869;SDS011;59739;47.696;11.746;2022-10-16T02:22:27;2.20;;;1.60;;
71869;SDS011;59739;47.696;11.746;2022-10-16T02:30:57;3.95;;;1.90;;
71869;SDS011;59739;47.696;11.746;2022-10-16T02:33:16;2.53;;;1.43;;
71869;SDS011;59739;47.696;11.746;2022-10-16T02:35:44;3.45;;;1.90;;
71869;SDS011;59739;47.696;11.746;2022-10-16T02:38:13;2.20;;;1.90;;
71869;SDS011;59739;47.696;11.746;2022-10-16T02:40:40;2.40;;;1.70;;
71869;SDS011;59739;47.696;11.746;2022-10-16T02:43:07;4.00;;;1.50;;
71869;SDS011;59739;47.696;11.746;2022-10-16T02:45:34;2.25;;;1.50;;
71869;SDS011;59739;47.696;11.746;2022-10-16T02:48:00;1.88;;;1.50;;
71869;SDS011;59739;47.696;11.746;2022-10-16T02:50:26;2.85;;;1.48;;
71869;SDS011;59739;47.696;11.746;2022-10-16T02:52:52;1.30;;;1.10;;
71869;SDS011;59739;47.696;11.746;2022-10-16T02:55:18;4.10;;;1.80;;
71869;SDS011;59739;47.696;11.746;2022-10-16T02:57:44;2.40;;;1.63;;
71869;SDS011;59739;47.696;11.746;2022-10-16T03:00:12;2.70;;;1.40;;
71869;SDS011;59739;47.696;11.746;2022-10-16T03:02:40;1.50;;;1.30;;
71869;SDS011;59739;47.696;11.746;2022-10-16T03:05:07;1.58;;;1.30;;
71869;SDS011;59739;47.696;11.746;2022-10-16T03:07:33;3.22;;;1.83;;
71869;SDS011;59739;47.696;11.746;2022-10-16T03:09:59;1.77;;;1.65;;
71869;SDS011;59739;47.696;11.746;2022-10-16T03:12:28;2.05;;;1.50;;
71869;SDS011;59739;47.696;11.746;2022-10-16T03:14:55;3.58;;;2.13;;
71869;SDS011;59739;47.696;11.746;2022-10-16T03:17:21;2.35;;;1.48;;
71869;SDS011;59739;47.696;11.746;2022-10-16T03:19:48;1.98;;;1.50;;
71869;SDS011;59739;47.696;11.746;2022-10-16T03:22:15;3.00;;;1.98;;
71869;SDS011;59739;47.696;11.746;2022-10-16T03:24:41;2.25;;;1.50;;
71869;SDS011;59739;47.696;11.746;2022-10-16T03:27:07;1.88;;;1.67;;
71869;SDS011;59739;47.696;11.746;2022-10-16T03:29:33;3.22;;;1.83;;
71869;SDS011;59739;47.696;11.746;2022-10-16T03:32:00;3.10;;;1.58;;
71869;SDS011;59739;47.696;11.746;2022-10-16T03:34:26;2.92;;;1.92;;
71869;SDS011;59739;47.696;11.746;2022-10-16T03:36:53;2.00;;;1.80;;
71869;SDS011;59739;47.696;11.746;2022-10-16T03:39:19;4.00;;;1.83;;
71869;SDS011;59739;47.696;11.746;2022-10-16T03:41:45;2.25;;;1.73;;
71869;SDS011;59739;47.696;11.746;2022-10-16T03:44:11;2.92;;;2.22;;
71869;SDS011;59739;47.696;11.746;2022-10-16T03:46:38;3.13;;;2.10;;
71869;SDS011;59739;47.696;11.746;2022-10-16T03:49:04;1.98;;;1.70;;
71869;SDS011;59739;47.696;11.746;2022-10-16T03:51:30;2.90;;;1.60;;
71869;SDS011;59739;47.696;11.746;2022-10-16T03:53:56;2.25;;;1.50;;
71869;SDS011;59739;47.696;11.746;2022-10-16T03:56:22;4.68;;;2.30;;
71869;SDS011;59739;47.696;11.746;2022-10-16T03:58:48;3.67;;;2.30;;
71869;SDS011;59739;47.696;11.746;2022-10-16T04:01:15;2.45;;;1.98;;
71869;SDS011;59739;47.696;11.746;2022-10-16T04:03:41;2.75;;;2.20;;
71869;SDS011;59739;47.696;11.746;2022-10-16T04:06:07;2.00;;;1.83;;
71869;SDS011;59739;47.696;11.746;2022-10-16T04:08:34;5.80;;;2.20;;
71869;SDS011;59739;47.696;11.746;2022-10-16T04:11:01;2.03;;;1.70;;
71869;SDS011;59739;47.696;11.746;2022-10-16T04:13:28;2.22;;;1.85;;
71869;SDS011;59739;47.696;11.746;2022-10-16T04:15:54;2.50;;;1.70;;
71869;SDS011;59739;47.696;11.746;2022-10-16T04:18:20;2.75;;;2.10;;
71869;SDS011;59739;47.696;11.746;2022-10-16T04:20:46;2.50;;;1.77;;
71869;SDS011;59739;47.696;11.746;2022-10-16T04:23:12;2.92;;;2.13;;
71869;SDS011;59739;47.696;11.746;2022-10-16T04:25:38;3.40;;;2.28;;
71869;SDS011;59739;47.696;11.746;2022-10-16T04:28:04;3.72;;;2.15;;
71869;SDS011;59739;47.696;11.746;2022-10-16T04:30:30;3.47;;;2.10;;
71869;SDS011;59739;47.696;11.746;2022-10-16T04:32:58;2.38;;;2.13;;
71869;SDS011;59739;47.696;11.746;2022-10-16T04:35:24;4.13;;;2.10;;
71869;SDS011;59739;47.696;11.746;2022-10-16T04:37:50;3.22;;;2.00;;
71869;SDS011;59739;47.696;11.746;2022-10-16T04:40:16;3.92;;;2.33;;
71869;SDS011;59739;47.696;11.746;2022-10-16T04:42:42;3.58;;;2.20;;
71869;SDS011;59739;47.696;11.746;2022-10-16T04:45:08;3.08;;;2.50;;
71869;SDS011;59739;47.696;11.746;2022-10-16T04:47:35;4.45;;;2.78;;
71869;SDS011;59739;47.696;11.746;2022-10-16T04:50:00;4.60;;;2.92;;
71869;SDS011;59739;47.696;11.746;2022-10-16T04:52:27;6.30;;;3.58;;
71869;SDS011;59739;47.696;11.746;2022-10-16T04:54:53;5.75;;;2.80;;
71869;SDS011;59739;47.696;11.746;2022-10-16T04:57:21;6.07;;;2.60;;
71869;SDS011;59739;47.696;11.746;2022-10-16T04:59:47;2.60;;;2.22;;
71869;SDS011;59739;47.696;11.746;2022-10-16T05:02:13;4.13;;;2.70;;
71869;SDS011;59739;47.696;11.746;2022-10-16T05:04:39;3.30;;;2.30;;
71869;SDS011;59739;47.696;11.746;2022-10-16T05:07:05;4.05;;;2.83;;
71869;SDS011;59739;47.696;11.746;2022-10-16T05:09:31;2.40;;;1.95;;
71869;SDS011;59739;47.696;11.746;2022-10-16T05:11:57;3.65;;;2.30;;
71869;SDS011;59739;47.696;11.746;2022-10-16T05:14:23;3.50;;;2.50;;
71869;SDS011;59739;47.696;11.746;2022-10-16T05:16:48;4.13;;;2.00;;
71869;SDS011;59739;47.696;11.746;2022-10-16T05:19:14;3.80;;;2.13;;
71869;SDS011;59739;47.696;11.746;2022-10-16T05:21:41;4.07;;;2.40;;
71869;SDS011;59739;47.696;11.746;2022-10-16T05:24:07;3.53;;;2.53;;
71869;SDS011;59739;47.696;11.746;2022-10-16T05:26:34;4.38;;;2.33;;
71869;SDS011;59739;47.696;11.746;2022-10-16T05:29:00;2.08;;;1.80;;
71869;SDS011;59739;47.696;11.746;2022-10-16T05:31:26;3.05;;;1.95;;
71869;SDS011;59739;47.696;11.746;2022-10-16T05:33:52;2.20;;;2.00;;
71869;SDS011;59739;47.696;11.746;2022-10-16T05:36:22;2.28;;;2.03;;
71869;SDS011;59739;47.696;11.746;2022-10-16T05:38:50;3.78;;;2.20;;
71869;SDS011;59739;47.696;11.746;2022-10-16T05:41:16;2.83;;;1.60;;
71869;SDS011;59739;47.696;11.746;2022-10-16T05:43:47;2.78;;;2.10;;
71869;SDS011;59739;47.696;11.746;2022-10-16T05:46:16;3.00;;;2.10;;
71869;SDS011;59739;47.696;11.746;2022-10-16T05:48:42;3.33;;;2.30;;
71869;SDS011;59739;47.696;11.746;2022-10-16T05:51:09;3.90;;;2.45;;
71869;SDS011;59739;47.696;11.746;2022-10-16T05:53:38;2.33;;;1.90;;
71869;SDS011;59739;47.696;11.746;2022-10-16T05:56:05;4.05;;;2.20;;
71869;SDS011;59739;47.696;11.746;2022-10-16T05:58:35;3.40;;;2.00;;
71869;SDS011;59739;47.696;11.746;2022-10-16T06:01:04;2.67;;;2.10;;
71869;SDS011;59739;47.696;11.746;2022-10-16T06:03:36;3.03;;;2.28;;
71869;SDS011;59739;47.696;11.746;2022-10-16T06:06:12;2.92;;;2.30;;
71869;SDS011;59739;47.696;11.746;2022-10-16T06:08:41;2.33;;;2.08;;
71869;SDS011;59739;47.696;11.746;2022-10-16T06:11:09;3.88;;;2.40;;
71869;SDS011;59739;47.696;11.746;2022-10-16T06:13:38;3.42;;;2.30;;
71869;SDS011;59739;47.696;11.746;2022-10-16T06:16:07;3.42;;;2.38;;
71869;SDS011;59739;47.696;11.746;2022-10-16T06:18:35;5.18;;;2.55;;
71869;SDS011;59739;47.696;11.746;2022-10-16T06:21:06;4.22;;;2.22;;
71869;SDS011;59739;47.696;11.746;2022-10-16T06:23:34;2.58;;;2.10;;
71869;SDS011;59739;47.696;11.746;2022-10-16T06:26:08;3.47;;;2.40;;
71869;SDS011;59739;47.696;11.746;2022-10-16T06:28:36;3.97;;;2.63;;
71869;SDS011;59739;47.696;11.746;2022-10-16T06:31:03;3.63;;;2.42;;
71869;SDS011;59739;47.696;11.746;2022-10-16T06:33:31;4.25;;;2.78;;
71869;SDS011;59739;47.696;11.746;2022-10-16T06:36:03;3.13;;;2.47;;
71869;SDS011;59739;47.696;11.746;2022-10-16T06:38:42;2.92;;;2.50;;
71869;SDS011;59739;47.696;11.746;2022-10-16T06:41:16;4.75;;;2.40;;
71869;SDS011;59739;47.696;11.746;2022-10-16T06:43:45;2.78;;;2.05;;
71869;SDS011;59739;47.696;11.746;2022-10-16T06:46:13;3.00;;;2.50;;
71869;SDS011;59739;47.696;11.746;2022-10-16T06:48:46;2.58;;;2.22;;
71869;SDS011;59739;47.696;11.746;2022-10-16T06:51:13;3.22;;;2.50;;
71869;SDS011;59739;47.696;11.746;2022-10-16T06:56:16;3.08;;;2.25;;
71869;SDS011;59739;47.696;11.746;2022-10-16T06:58:43;4.22;;;2.45;;
71869;SDS011;59739;47.696;11.746;2022-10-16T07:01:09;2.67;;;1.70;;
71869;SDS011;59739;47.696;11.746;2022-10-16T07:03:37;2.60;;;2.22;;
71869;SDS011;59739;47.696;11.746;2022-10-16T07:06:05;2.55;;;2.17;;
71869;SDS011;59739;47.696;11.746;2022-10-16T07:08:38;3.83;;;2.65;;
71869;SDS011;59739;47.696;11.746;2022-10-16T07:11:06;5.25;;;2.15;;
71869;SDS011;59739;47.696;11.746;2022-10-16T07:13:39;3.83;;;2.42;;
71869;SDS011;59739;47.696;11.746;2022-10-16T07:16:10;4.15;;;2.60;;
71869;SDS011;59739;47.696;11.746;2022-10-16T07:18:40;2.53;;;2.22;;
71869;SDS011;59739;47.696;11.746;2022-10-16T07:21:17;2.85;;;2.00;;
71869;SDS011;59739;47.696;11.746;2022-10-16T07:23:55;3.40;;;2.20;;
71869;SDS011;59739;47.696;11.746;2022-10-16T07:26:24;3.92;;;2.20;;
71869;SDS011;59739;47.696;11.746;2022-10-16T07:28:51;4.07;;;3.22;;
71869;SDS011;59739;47.696;11.746;2022-10-16T07:31:18;3.35;;;2.40;;
71869;SDS011;59739;47.696;11.746;2022-10-16T07:33:46;2.58;;;2.30;;
71869;SDS011;59739;47.696;11.746;2022-10-16T07:36:15;2.75;;;2.47;;
71869;SDS011;59739;47.696;11.746;2022-10-16T07:38:47;2.55;;;2.17;;
71869;SDS011;59739;47.696;11.746;2022-10-16T07:41:18;2.85;;;2.03;;
71869;SDS011;59739;47.696;11.746;2022-10-16T07:43:47;3.15;;;2.08;;
71869;SDS011;59739;47.696;11.746;2022-10-16T07:46:28;3.00;;;2.42;;
71869;SDS011;59739;47.696;11.746;2022-10-16T07:48:56;2.30;;;2.00;;
71869;SDS011;59739;47.696;11.746;2022-10-16T07:51:23;4.60;;;2.63;;
71869;SDS011;59739;47.696;11.746;2022-10-16T07:53:50;3.83;;;2.15;;
71869;SDS011;59739;47.696;11.746;2022-10-16T07:56:18;5.18;;;2.60;;
71869;SDS011;59739;47.696;11.746;2022-10-16T07:58:47;3.40;;;2.30;;
71869;SDS011;59739;47.696;11.746;2022-10-16T08:01:15;3.55;;;2.28;;
71869;SDS011;59739;47.696;11.746;2022-10-16T08:03:46;3.25;;;1.92;;
71869;SDS011;59739;47.696;11.746;2022-10-16T08:06:15;3.10;;;2.35;;
71869;SDS011;59739;47.696;11.746;2022-10-16T08:08:42;2.92;;;2.60;;
71869;SDS011;59739;47.696;11.746;2022-10-16T08:11:09;2.30;;;2.10;;
71869;SDS011;59739;47.696;11.746;2022-10-16T08:13:35;2.28;;;1.90;;
71869;SDS011;59739;47.696;11.746;2022-10-16T08:16:10;2.25;;;2.05;;
71869;SDS011;59739;47.696;11.746;2022-10-16T08:18:49;2.33;;;1.73;;
71869;SDS011;59739;47.696;11.746;2022-10-16T08:21:23;2.55;;;2.05;;
71869;SDS011;59739;47.696;11.746;2022-10-16T08:23:54;3.50;;;2.07;;
71869;SDS011;59739;47.696;11.746;2022-10-16T08:26:23;2.42;;;2.08;;
71869;SDS011;59739;47.696;11.746;2022-10-16T08:29:12;2.83;;;2.40;;
71869;SDS011;59739;47.696;11.746;2022-10-16T08:31:40;3.10;;;2.38;;
71869;SDS011;59739;47.696;11.746;2022-10-16T08:34:14;4.85;;;2.42;;
71869;SDS011;59739;47.696;11.746;2022-10-16T08:36:43;3.65;;;2.30;;
71869;SDS011;59739;47.696;11.746;2022-10-16T08:39:15;2.90;;;2.20;;
71869;SDS011;59739;47.696;11.746;2022-10-16T08:51:00;2.33;;;2.08;;
71869;SDS011;59739;47.696;11.746;2022-10-16T08:53:30;2.60;;;1.90;;
71869;SDS011;59739;47.696;11.746;2022-10-16T08:56:11;2.65;;;2.17;;
71869;SDS011;59739;47.696;11.746;2022-10-16T08:58:44;2.90;;;1.98;;
71869;SDS011;59739;47.696;11.746;2022-10-16T09:01:13;2.17;;;1.98;;
71869;SDS011;59739;47.696;11.746;2022-10-16T09:06:40;2.40;;;2.08;;
71869;SDS011;59739;47.696;11.746;2022-10-16T09:12:24;2.85;;;1.90;;
71869;SDS011;59739;47.696;11.746;2022-10-16T09:24:18;2.30;;;2.10;;
71869;SDS011;59739;47.696;11.746;2022-10-16T09:26:50;2.63;;;2.10;;
71869;SDS011;59739;47.696;11.746;2022-10-16T09:29:17;2.72;;;2.40;;
71869;SDS011;59739;47.696;11.746;2022-10-16T09:31:51;2.53;;;2.00;;
71869;SDS011;59739;47.696;11.746;2022-10-16T09:34:36;2.33;;;2.00;;
71869;SDS011;59739;47.696;11.746;2022-10-16T09:37:19;3.38;;;2.25;;
71869;SDS011;59739;47.696;11.746;2022-10-16T09:39:56;2.65;;;2.45;;
71869;SDS011;59739;47.696;11.746;2022-10-16T09:42:24;3.28;;;2.08;;
71869;SDS011;59739;47.696;11.746;2022-10-16T09:44:57;2.50;;;1.90;;
71869;SDS011;59739;47.696;11.746;2022-10-16T09:47:27;2.78;;;2.20;;
71869;SDS011;59739;47.696;11.746;2022-10-16T09:49:59;2.40;;;2.17;;
71869;SDS011;59739;47.696;11.746;2022-10-16T09:52:44;2.17;;;1.98;;
71869;SDS011;59739;47.696;11.746;2022-10-16T09:55:14;2.40;;;1.67;;
71869;SDS011;59739;47.696;11.746;2022-10-16T09:57:52;2.53;;;1.70;;
71869;SDS011;59739;47.696;11.746;2022-10-16T10:00:23;2.20;;;1.75;;
71869;SDS011;59739;47.696;11.746;2022-10-16T10:02:53;2.05;;;1.80;;
71869;SDS011;59739;47.696;11.746;2022-10-16T10:05:21;2.05;;;1.60;;
71869;SDS011;59739;47.696;11.746;2022-10-16T10:07:56;2.13;;;1.73;;
71869;SDS011;59739;47.696;11.746;2022-10-16T10:10:25;2.97;;;1.67;;
71869;SDS011;59739;47.696;11.746;2022-10-16T10:12:55;3.58;;;1.80;;
71869;SDS011;59739;47.696;11.746;2022-10-16T10:15:22;2.85;;;2.13;;
71869;SDS011;59739;47.696;11.746;2022-10-16T10:17:56;2.30;;;1.70;;
71869;SDS011;59739;47.696;11.746;2022-10-16T10:20:27;2.05;;;1.73;;
71869;SDS011;59739;47.696;11.746;2022-10-16T10:23:22;1.92;;;1.73;;
71869;SDS011;59739;47.696;11.746;2022-10-16T10:25:56;2.15;;;1.67;;
71869;SDS011;59739;47.696;11.746;2022-10-16T10:28:43;3.55;;;2.63;;
71869;SDS011;59739;47.696;11.746;2022-10-16T10:31:35;2.10;;;1.85;;
71869;SDS011;59739;47.696;11.746;2022-10-16T10:34:32;1.80;;;1.58;;
71869;SDS011;59739;47.696;11.746;2022-10-16T10:40:02;1.50;;;1.40;;
71869;SDS011;59739;47.696;11.746;2022-10-16T10:46:04;2.03;;;1.45;;
71869;SDS011;59739;47.696;11.746;2022-10-16T10:54:28;3.13;;;1.60;;
71869;SDS011;59739;47.696;11.746;2022-10-16T11:00:46;1.45;;;1.10;;
71869;SDS011;59739;47.696;11.746;2022-10-16T11:06:12;1.25;;;1.10;;
71869;SDS011;59739;47.696;11.746;2022-10-16T11:08:50;2.17;;;0.90;;
71869;SDS011;59739;47.696;11.746;2022-10-16T11:11:29;2.15;;;0.98;;
71869;SDS011;59739;47.696;11.746;2022-10-16T11:14:14;1.05;;;0.90;;
71869;SDS011;59739;47.696;11.746;2022-10-16T11:17:01;1.02;;;0.93;;
71869;SDS011;59739;47.696;11.746;2022-10-16T11:19:58;0.80;;;0.80;;
71869;SDS011;59739;47.696;11.746;2022-10-16T11:22:41;0.93;;;0.50;;
71869;SDS011;59739;47.696;11.746;2022-10-16T11:25:22;1.02;;;0.80;;
71869;SDS011;59739;47.696;11.746;2022-10-16T11:28:01;0.70;;;0.70;;
71869;SDS011;59739;47.696;11.746;2022-10-16T11:33:54;2.88;;;0.88;;
71869;SDS011;59739;47.696;11.746;2022-10-16T11:39:42;1.15;;;0.85;;
71869;SDS011;59739;47.696;11.746;2022-10-16T11:42:13;0.98;;;0.68;;
71869;SDS011;59739;47.696;11.746;2022-10-16T11:44:53;2.70;;;0.80;;
71869;SDS011;59739;47.696;11.746;2022-10-16T11:47:54;1.27;;;0.80;;
71869;SDS011;59739;47.696;11.746;2022-10-16T11:50:39;0.75;;;0.60;;
71869;SDS011;59739;47.696;11.746;2022-10-16T11:56:00;1.25;;;0.70;;
71869;SDS011;59739;47.696;11.746;2022-10-16T11:59:12;2.47;;;0.80;;
71869;SDS011;59739;47.696;11.746;2022-10-16T12:01:32;1.25;;;0.60;;
71869;SDS011;59739;47.696;11.746;2022-10-16T12:07:11;0.70;;;0.70;;
71869;SDS011;59739;47.696;11.746;2022-10-16T12:09:51;0.90;;;0.70;;
71869;SDS011;59739;47.696;11.746;2022-10-16T12:12:24;1.02;;;0.80;;
71869;SDS011;59739;47.696;11.746;2022-10-16T12:15:03;2.47;;;0.70;;
71869;SDS011;59739;47.696;11.746;2022-10-16T12:17:52;1.85;;;0.70;;
71869;SDS011;59739;47.696;11.746;2022-10-16T12:22:56;3.45;;;1.55;;
71869;SDS011;59739;47.696;11.746;2022-10-16T12:30:29;1.33;;;0.55;;
71869;SDS011;59739;47.696;11.746;2022-10-16T12:35:45;0.60;;;0.60;;
71869;SDS011;59739;47.696;11.746;2022-10-16T12:38:16;1.75;;;0.73;;
71869;SDS011;59739;47.696;11.746;2022-10-16T12:41:01;1.70;;;0.60;;
71869;SDS011;59739;47.696;11.746;2022-10-16T12:48:36;0.90;;;0.55;;
71869;SDS011;59739;47.696;11.746;2022-10-16T13:14:30;0.65;;;0.65;;
71869;SDS011;59739;47.696;11.746;2022-10-16T13:16:54;0.47;;;0.47;;
71869;SDS011;59739;47.696;11.746;2022-10-16T13:28:32;1.05;;;0.70;;
71869;SDS011;59739;47.696;11.746;2022-10-16T13:31:00;1.25;;;0.80;;
71869;SDS011;59739;47.696;11.746;2022-10-16T13:33:40;0.88;;;0.60;;
71869;SDS011;59739;47.696;11.746;2022-10-16T13:36:21;0.60;;;0.60;;
71869;SDS011;59739;47.696;11.746;2022-10-16T13:39:01;1.33;;;0.60;;
71869;SDS011;59739;47.696;11.746;2022-10-16T13:41:46;1.45;;;0.70;;
71869;SDS011;59739;47.696;11.746;2022-10-16T13:44:40;1.50;;;0.70;;
71869;SDS011;59739;47.696;11.746;2022-10-16T13:47:20;2.25;;;0.50;;
71869;SDS011;59739;47.696;11.746;2022-10-16T13:49:59;2.10;;;0.80;;
71869;SDS011;59739;47.696;11.746;2022-10-16T13:52:29;3.38;;;1.13;;
71869;SDS011;59739;47.696;11.746;2022-10-16T13:54:56;2.30;;;0.60;;
71869;SDS011;59739;47.696;11.746;2022-10-16T13:57:23;2.55;;;0.85;;
71869;SDS011;59739;47.696;11.746;2022-10-16T13:59:50;0.60;;;0.60;;
71869;SDS011;59739;47.696;11.746;2022-10-16T14:02:19;0.88;;;0.60;;
71869;SDS011;59739;47.696;11.746;2022-10-16T14:04:52;2.05;;;0.70;;
71869;SDS011;59739;47.696;11.746;2022-10-16T14:07:21;1.35;;;0.68;;
71869;SDS011;59739;47.696;11.746;2022-10-16T14:10:06;1.05;;;0.95;;
71869;SDS011;59739;47.696;11.746;2022-10-16T14:13:07;0.77;;;0.40;;
71869;SDS011;59739;47.696;11.746;2022-10-16T14:15:45;0.90;;;0.55;;
71869;SDS011;59739;47.696;11.746;2022-10-16T14:18:18;1.70;;;0.60;;
71869;SDS011;59739;47.696;11.746;2022-10-16T14:20:50;2.67;;;0.70;;
71869;SDS011;59739;47.696;11.746;2022-10-16T14:23:19;2.78;;;0.80;;
71869;SDS011;59739;47.696;11.746;2022-10-16T14:25:47;0.80;;;0.60;;
71869;SDS011;59739;47.696;11.746;2022-10-16T14:30:57;2.05;;;0.60;;
71869;SDS011;59739;47.696;11.746;2022-10-16T14:38:39;1.15;;;0.60;;
71869;SDS011;59739;47.696;11.746;2022-10-16T14:41:08;0.75;;;0.73;;
71869;SDS011;59739;47.696;11.746;2022-10-16T14:46:28;1.98;;;0.60;;
71869;SDS011;59739;47.696;11.746;2022-10-16T14:49:02;1.30;;;0.80;;
71869;SDS011;59739;47.696;11.746;2022-10-16T14:51:36;1.27;;;0.60;;
71869;SDS011;59739;47.696;11.746;2022-10-16T14:54:08;1.00;;;0.90;;
71869;SDS011;59739;47.696;11.746;2022-10-16T14:56:43;2.17;;;0.60;;
71869;SDS011;59739;47.696;11.746;2022-10-16T14:59:22;1.98;;;0.60;;
71869;SDS011;59739;47.696;11.746;2022-10-16T15:01:51;0.65;;;0.60;;
71869;SDS011;59739;47.696;11.746;2022-10-16T15:04:17;2.50;;;1.02;;
71869;SDS011;59739;47.696;11.746;2022-10-16T15:06:44;1.17;;;0.68;;
71869;SDS011;59739;47.696;11.746;2022-10-16T15:09:10;1.85;;;0.60;;
71869;SDS011;59739;47.696;11.746;2022-10-16T15:11:36;2.25;;;0.70;;
71869;SDS011;59739;47.696;11.746;2022-10-16T15:14:03;2.00;;;1.20;;
71869;SDS011;59739;47.696;11.746;2022-10-16T15:16:30;1.20;;;0.95;;
71869;SDS011;59739;47.696;11.746;2022-10-16T15:18:57;3.17;;;0.70;;
71869;SDS011;59739;47.696;11.746;2022-10-16T15:21:30;2.35;;;0.90;;
71869;SDS011;59739;47.696;11.746;2022-10-16T15:23:58;1.13;;;0.80;;
71869;SDS011;59739;47.696;11.746;2022-10-16T15:26:26;1.27;;;0.65;;
71869;SDS011;59739;47.696;11.746;2022-10-16T15:28:54;1.77;;;0.82;;
71869;SDS011;59739;47.696;11.746;2022-10-16T15:31:20;2.05;;;1.10;;
71869;SDS011;59739;47.696;11.746;2022-10-16T15:33:51;1.40;;;0.95;;
71869;SDS011;59739;47.696;11.746;2022-10-16T15:36:29;2.45;;;1.15;;
71869;SDS011;59739;47.696;11.746;2022-10-16T15:38:59;3.25;;;0.93;;
71869;SDS011;59739;47.696;11.746;2022-10-16T15:41:25;1.88;;;1.20;;
71869;SDS011;59739;47.696;11.746;2022-10-16T15:43:51;3.00;;;1.10;;
71869;SDS011;59739;47.696;11.746;2022-10-16T15:46:18;1.30;;;0.93;;
71869;SDS011;59739;47.696;11.746;2022-10-16T15:48:48;2.25;;;1.00;;
71869;SDS011;59739;47.696;11.746;2022-10-16T15:51:16;2.03;;;1.08;;
71869;SDS011;59739;47.696;11.746;2022-10-16T15:53:43;4.72;;;1.77;;
71869;SDS011;59739;47.696;11.746;2022-10-16T15:56:12;2.85;;;1.45;;
71869;SDS011;59739;47.696;11.746;2022-10-16T15:58:41;1.25;;;0.95;;
71869;SDS011;59739;47.696;11.746;2022-10-16T16:01:08;1.80;;;1.00;;
71869;SDS011;59739;47.696;11.746;2022-10-16T16:03:37;1.73;;;1.08;;
71869;SDS011;59739;47.696;11.746;2022-10-16T16:06:09;1.52;;;0.88;;
71869;SDS011;59739;47.696;11.746;2022-10-16T16:08:37;7.75;;;1.10;;
71869;SDS011;59739;47.696;11.746;2022-10-16T16:11:06;3.47;;;1.02;;
71869;SDS011;59739;47.696;11.746;2022-10-16T16:13:37;2.50;;;1.00;;
71869;SDS011;59739;47.696;11.746;2022-10-16T16:16:08;3.38;;;1.10;;
71869;SDS011;59739;47.696;11.746;2022-10-16T16:18:40;2.67;;;1.10;;
71869;SDS011;59739;47.696;11.746;2022-10-16T16:21:08;1.63;;;1.10;;
71869;SDS011;59739;47.696;11.746;2022-10-16T16:23:44;2.88;;;1.20;;
71869;SDS011;59739;47.696;11.746;2022-10-16T16:26:23;2.13;;;1.27;;
71869;SDS011;59739;47.696;11.746;2022-10-16T16:29:00;3.65;;;1.50;;
71869;SDS011;59739;47.696;11.746;2022-10-16T16:31:27;3.17;;;1.33;;
71869;SDS011;59739;47.696;11.746;2022-10-16T16:33:59;3.65;;;1.52;;
71869;SDS011;59739;47.696;11.746;2022-10-16T16:36:25;6.82;;;1.63;;
71869;SDS011;59739;47.696;11.746;2022-10-16T16:38:51;2.35;;;1.35;;
71869;SDS011;59739;47.696;11.746;2022-10-16T16:41:18;4.30;;;1.80;;
71869;SDS011;59739;47.696;11.746;2022-10-16T16:43:47;4.20;;;2.17;;
71869;SDS011;59739;47.696;11.746;2022-10-16T16:46:14;3.13;;;2.25;;
71869;SDS011;59739;47.696;11.746;2022-10-16T16:48:40;4.07;;;2.28;;
71869;SDS011;59739;47.696;11.746;2022-10-16T16:51:11;3.70;;;2.17;;
71869;SDS011;59739;47.696;11.746;2022-10-16T16:53:44;4.22;;;2.28;;
71869;SDS011;59739;47.696;11.746;2022-10-16T16:56:14;3.67;;;2.05;;
71869;SDS011;59739;47.696;11.746;2022-10-16T16:58:40;6.53;;;4.32;;
71869;SDS011;59739;47.696;11.746;2022-10-16T17:01:09;3.47;;;2.40;;
71869;SDS011;59739;47.696;11.746;2022-10-16T17:03:35;6.43;;;2.33;;
71869;SDS011;59739;47.696;11.746;2022-10-16T17:06:06;4.50;;;2.42;;
71869;SDS011;59739;47.696;11.746;2022-10-16T17:08:33;3.88;;;2.40;;
71869;SDS011;59739;47.696;11.746;2022-10-16T17:11:00;7.07;;;2.60;;
71869;SDS011;59739;47.696;11.746;2022-10-16T17:13:27;3.60;;;2.90;;
71869;SDS011;59739;47.696;11.746;2022-10-16T17:15:56;4.07;;;2.20;;
71869;SDS011;59739;47.696;11.746;2022-10-16T17:18:23;6.68;;;2.50;;